sensor_id;sensor_type;location;lat;lon;timestamp;P1;durP1;ratioP1;P2;durP2;ratioP2
6951;SDS011;3515;50.138;8.502;2022-08-21T00:01:19;4;;;1;;
6951;SDS011;3515;50.138;8.502;2022-08-21T00:03:44;3;;;0;;
6951;SDS011;3515;50.138;8.502;2022-08-21T00:06:09;3;;;0;;
6951;SDS011;3515;50.138;8.502;2022-08-21T00:08:34;3;;;0;;
6951;SDS011;3515;50.138;8.502;2022-08-21T00:10:59;3;;;0;;
6951;SDS011;3515;50.138;8.502;2022-08-21T00:13:25;3;;;0;;
6951;SDS011;3515;50.138;8.502;2022-08-21T00:15:50;3;;;0;;
6951;SDS011;3515;50.138;8.502;2022-08-21T00:18:16;6;;;2;;
6951;SDS011;3515;50.138;8.502;2022-08-21T00:20:41;7;;;3;;
6951;SDS011;3515;50.138;8.502;2022-08-21T00:23:06;6;;;3;;
6951;SDS011;3515;50.138;8.502;2022-08-21T00:25:31;6;;;3;;
6951;SDS011;3515;50.138;8.502;2022-08-21T00:27:56;6;;;3;;
6951;SDS011;3515;50.138;8.502;2022-08-21T00:30:23;7;;;3;;
6951;SDS011;3515;50.138;8.502;2022-08-21T00:32:47;7;;;3;;
6951;SDS011;3515;50.138;8.502;2022-08-21T00:35:13;7;;;3;;
6951;SDS011;3515;50.138;8.502;2022-08-21T00:37:37;3;;;1;;
6951;SDS011;3515;50.138;8.502;2022-08-21T00:40:04;3;;;1;;
6951;SDS011;3515;50.138;8.502;2022-08-21T00:42:28;3;;;0;;
6951;SDS011;3515;50.138;8.502;2022-08-21T00:44:53;3;;;0;;
6951;SDS011;3515;50.138;8.502;2022-08-21T00:47:19;3;;;0;;
6951;SDS011;3515;50.138;8.502;2022-08-21T00:49:44;3;;;0;;
6951;SDS011;3515;50.138;8.502;2022-08-21T00:52:09;3;;;0;;
6951;SDS011;3515;50.138;8.502;2022-08-21T00:54:34;3;;;0;;
6951;SDS011;3515;50.138;8.502;2022-08-21T00:57:00;3;;;0;;
6951;SDS011;3515;50.138;8.502;2022-08-21T00:59:25;2;;;0;;
6951;SDS011;3515;50.138;8.502;2022-08-21T01:01:50;2;;;0;;
6951;SDS011;3515;50.138;8.502;2022-08-21T01:04:15;3;;;0;;
6951;SDS011;3515;50.138;8.502;2022-08-21T01:06:40;2;;;0;;
6951;SDS011;3515;50.138;8.502;2022-08-21T01:09:06;3;;;0;;
6951;SDS011;3515;50.138;8.502;2022-08-21T01:11:31;3;;;0;;
6951;SDS011;3515;50.138;8.502;2022-08-21T01:13:56;3;;;0;;
6951;SDS011;3515;50.138;8.502;2022-08-21T01:16:21;3;;;0;;
6951;SDS011;3515;50.138;8.502;2022-08-21T01:18:47;3;;;0;;
6951;SDS011;3515;50.138;8.502;2022-08-21T01:21:12;3;;;0;;
6951;SDS011;3515;50.138;8.502;2022-08-21T01:23:38;2;;;0;;
6951;SDS011;3515;50.138;8.502;2022-08-21T01:26:03;5;;;2;;
6951;SDS011;3515;50.138;8.502;2022-08-21T01:28:28;6;;;2;;
6951;SDS011;3515;50.138;8.502;2022-08-21T01:30:53;6;;;2;;
6951;SDS011;3515;50.138;8.502;2022-08-21T01:33:18;6;;;2;;
6951;SDS011;3515;50.138;8.502;2022-08-21T01:35:43;6;;;3;;
6951;SDS011;3515;50.138;8.502;2022-08-21T01:38:09;6;;;3;;
6951;SDS011;3515;50.138;8.502;2022-08-21T01:40:34;6;;;3;;
6951;SDS011;3515;50.138;8.502;2022-08-21T01:42:59;6;;;3;;
6951;SDS011;3515;50.138;8.502;2022-08-21T01:45:24;3;;;1;;
6951;SDS011;3515;50.138;8.502;2022-08-21T01:47:50;3;;;0;;
6951;SDS011;3515;50.138;8.502;2022-08-21T01:50:17;2;;;0;;
6951;SDS011;3515;50.138;8.502;2022-08-21T01:52:40;2;;;0;;
6951;SDS011;3515;50.138;8.502;2022-08-21T01:55:06;2;;;0;;
6951;SDS011;3515;50.138;8.502;2022-08-21T01:57:31;6;;;2;;
6951;SDS011;3515;50.138;8.502;2022-08-21T01:59:56;6;;;2;;
6951;SDS011;3515;50.138;8.502;2022-08-21T02:02:21;6;;;2;;
6951;SDS011;3515;50.138;8.502;2022-08-21T02:04:47;6;;;2;;
6951;SDS011;3515;50.138;8.502;2022-08-21T02:07:12;6;;;2;;
6951;SDS011;3515;50.138;8.502;2022-08-21T02:09:37;6;;;2;;
6951;SDS011;3515;50.138;8.502;2022-08-21T02:12:03;6;;;2;;
6951;SDS011;3515;50.138;8.502;2022-08-21T02:14:28;6;;;2;;
6951;SDS011;3515;50.138;8.502;2022-08-21T02:16:53;6;;;2;;
6951;SDS011;3515;50.138;8.502;2022-08-21T02:19:18;6;;;2;;
6951;SDS011;3515;50.138;8.502;2022-08-21T02:21:44;6;;;2;;
6951;SDS011;3515;50.138;8.502;2022-08-21T02:24:09;6;;;2;;
6951;SDS011;3515;50.138;8.502;2022-08-21T02:26:34;6;;;2;;
6951;SDS011;3515;50.138;8.502;2022-08-21T02:29:00;7;;;2;;
6951;SDS011;3515;50.138;8.502;2022-08-21T02:31:25;7;;;2;;
6951;SDS011;3515;50.138;8.502;2022-08-21T02:33:50;7;;;2;;
6951;SDS011;3515;50.138;8.502;2022-08-21T02:36:15;4;;;0;;
6951;SDS011;3515;50.138;8.502;2022-08-21T02:38:41;4;;;0;;
6951;SDS011;3515;50.138;8.502;2022-08-21T02:41:07;7;;;2;;
6951;SDS011;3515;50.138;8.502;2022-08-21T02:43:31;7;;;2;;
6951;SDS011;3515;50.138;8.502;2022-08-21T02:45:57;7;;;2;;
6951;SDS011;3515;50.138;8.502;2022-08-21T02:48:22;6;;;2;;
6951;SDS011;3515;50.138;8.502;2022-08-21T02:50:48;6;;;2;;
6951;SDS011;3515;50.138;8.502;2022-08-21T02:53:13;6;;;2;;
6951;SDS011;3515;50.138;8.502;2022-08-21T02:55:37;6;;;2;;
6951;SDS011;3515;50.138;8.502;2022-08-21T02:58:03;6;;;2;;
6951;SDS011;3515;50.138;8.502;2022-08-21T03:00:29;2;;;0;;
6951;SDS011;3515;50.138;8.502;2022-08-21T03:02:54;2;;;0;;
6951;SDS011;3515;50.138;8.502;2022-08-21T03:05:19;3;;;0;;
6951;SDS011;3515;50.138;8.502;2022-08-21T03:07:44;4;;;0;;
6951;SDS011;3515;50.138;8.502;2022-08-21T03:10:09;4;;;0;;
6951;SDS011;3515;50.138;8.502;2022-08-21T03:12:34;5;;;0;;
6951;SDS011;3515;50.138;8.502;2022-08-21T03:14:59;5;;;0;;
6951;SDS011;3515;50.138;8.502;2022-08-21T03:17:25;5;;;0;;
6951;SDS011;3515;50.138;8.502;2022-08-21T03:19:50;5;;;0;;
6951;SDS011;3515;50.138;8.502;2022-08-21T03:22:21;5;;;0;;
6951;SDS011;3515;50.138;8.502;2022-08-21T03:24:45;4;;;0;;
6951;SDS011;3515;50.138;8.502;2022-08-21T03:27:11;4;;;0;;
6951;SDS011;3515;50.138;8.502;2022-08-21T03:29:36;4;;;0;;
6951;SDS011;3515;50.138;8.502;2022-08-21T03:32:01;3;;;0;;
6951;SDS011;3515;50.138;8.502;2022-08-21T03:34:26;4;;;0;;
6951;SDS011;3515;50.138;8.502;2022-08-21T03:36:52;3;;;0;;
6951;SDS011;3515;50.138;8.502;2022-08-21T03:39:17;3;;;0;;
6951;SDS011;3515;50.138;8.502;2022-08-21T03:41:42;3;;;0;;
6951;SDS011;3515;50.138;8.502;2022-08-21T03:44:07;4;;;0;;
6951;SDS011;3515;50.138;8.502;2022-08-21T03:46:33;4;;;0;;
6951;SDS011;3515;50.138;8.502;2022-08-21T03:48:58;3;;;0;;
6951;SDS011;3515;50.138;8.502;2022-08-21T03:51:23;3;;;0;;
6951;SDS011;3515;50.138;8.502;2022-08-21T03:53:48;3;;;0;;
6951;SDS011;3515;50.138;8.502;2022-08-21T03:56:14;4;;;0;;
6951;SDS011;3515;50.138;8.502;2022-08-21T03:58:39;4;;;0;;
6951;SDS011;3515;50.138;8.502;2022-08-21T04:01:05;4;;;0;;
6951;SDS011;3515;50.138;8.502;2022-08-21T04:03:30;4;;;0;;
6951;SDS011;3515;50.138;8.502;2022-08-21T04:05:55;6;;;1;;
6951;SDS011;3515;50.138;8.502;2022-08-21T04:08:20;7;;;2;;
6951;SDS011;3515;50.138;8.502;2022-08-21T04:10:47;7;;;2;;
6951;SDS011;3515;50.138;8.502;2022-08-21T04:13:11;7;;;2;;
6951;SDS011;3515;50.138;8.502;2022-08-21T04:15:36;6;;;2;;
6951;SDS011;3515;50.138;8.502;2022-08-21T04:18:02;6;;;2;;
6951;SDS011;3515;50.138;8.502;2022-08-21T04:20:26;6;;;2;;
6951;SDS011;3515;50.138;8.502;2022-08-21T04:22:52;7;;;2;;
6951;SDS011;3515;50.138;8.502;2022-08-21T04:25:17;4;;;0;;
6951;SDS011;3515;50.138;8.502;2022-08-21T04:27:42;3;;;0;;
6951;SDS011;3515;50.138;8.502;2022-08-21T04:30:09;3;;;0;;
6951;SDS011;3515;50.138;8.502;2022-08-21T04:32:33;3;;;0;;
6951;SDS011;3515;50.138;8.502;2022-08-21T04:34:58;3;;;0;;
6951;SDS011;3515;50.138;8.502;2022-08-21T04:37:23;6;;;2;;
6951;SDS011;3515;50.138;8.502;2022-08-21T04:39:49;6;;;2;;
6951;SDS011;3515;50.138;8.502;2022-08-21T04:42:14;6;;;2;;
6951;SDS011;3515;50.138;8.502;2022-08-21T04:44:39;6;;;2;;
6951;SDS011;3515;50.138;8.502;2022-08-21T04:47:05;6;;;2;;
6951;SDS011;3515;50.138;8.502;2022-08-21T04:49:30;6;;;2;;
6951;SDS011;3515;50.138;8.502;2022-08-21T04:51:55;9;;;3;;
6951;SDS011;3515;50.138;8.502;2022-08-21T04:54:20;9;;;4;;
6951;SDS011;3515;50.138;8.502;2022-08-21T04:56:47;6;;;2;;
6951;SDS011;3515;50.138;8.502;2022-08-21T04:59:12;10;;;4;;
6951;SDS011;3515;50.138;8.502;2022-08-21T05:01:36;11;;;4;;
6951;SDS011;3515;50.138;8.502;2022-08-21T05:04:02;11;;;4;;
6951;SDS011;3515;50.138;8.502;2022-08-21T05:06:27;10;;;4;;
6951;SDS011;3515;50.138;8.502;2022-08-21T05:08:52;10;;;4;;
6951;SDS011;3515;50.138;8.502;2022-08-21T05:11:17;8;;;3;;
6951;SDS011;3515;50.138;8.502;2022-08-21T05:13:43;8;;;2;;
6951;SDS011;3515;50.138;8.502;2022-08-21T05:16:08;7;;;2;;
6951;SDS011;3515;50.138;8.502;2022-08-21T05:18:33;4;;;0;;
6951;SDS011;3515;50.138;8.502;2022-08-21T05:20:58;4;;;0;;
6951;SDS011;3515;50.138;8.502;2022-08-21T05:23:24;4;;;0;;
6951;SDS011;3515;50.138;8.502;2022-08-21T05:25:49;4;;;0;;
6951;SDS011;3515;50.138;8.502;2022-08-21T05:28:14;4;;;0;;
6951;SDS011;3515;50.138;8.502;2022-08-21T05:30:40;7;;;2;;
6951;SDS011;3515;50.138;8.502;2022-08-21T05:33:05;8;;;2;;
6951;SDS011;3515;50.138;8.502;2022-08-21T05:35:30;8;;;2;;
6951;SDS011;3515;50.138;8.502;2022-08-21T05:37:56;8;;;3;;
6951;SDS011;3515;50.138;8.502;2022-08-21T05:40:21;7;;;3;;
6951;SDS011;3515;50.138;8.502;2022-08-21T05:42:46;7;;;3;;
6951;SDS011;3515;50.138;8.502;2022-08-21T05:45:11;7;;;3;;
6951;SDS011;3515;50.138;8.502;2022-08-21T05:47:36;7;;;3;;
6951;SDS011;3515;50.138;8.502;2022-08-21T05:50:02;4;;;1;;
6951;SDS011;3515;50.138;8.502;2022-08-21T05:52:27;4;;;1;;
6951;SDS011;3515;50.138;8.502;2022-08-21T05:54:52;4;;;1;;
6951;SDS011;3515;50.138;8.502;2022-08-21T05:57:18;4;;;1;;
6951;SDS011;3515;50.138;8.502;2022-08-21T05:59:43;4;;;1;;
6951;SDS011;3515;50.138;8.502;2022-08-21T06:02:08;4;;;1;;
6951;SDS011;3515;50.138;8.502;2022-08-21T06:04:35;4;;;1;;
6951;SDS011;3515;50.138;8.502;2022-08-21T06:06:59;9;;;4;;
6951;SDS011;3515;50.138;8.502;2022-08-21T06:09:24;10;;;4;;
6951;SDS011;3515;50.138;8.502;2022-08-21T06:11:49;11;;;5;;
6951;SDS011;3515;50.138;8.502;2022-08-21T06:14:15;12;;;5;;
6951;SDS011;3515;50.138;8.502;2022-08-21T06:16:40;12;;;5;;
6951;SDS011;3515;50.138;8.502;2022-08-21T06:19:05;12;;;6;;
6951;SDS011;3515;50.138;8.502;2022-08-21T06:21:30;13;;;6;;
6951;SDS011;3515;50.138;8.502;2022-08-21T06:23:56;14;;;6;;
6951;SDS011;3515;50.138;8.502;2022-08-21T06:26:25;10;;;4;;
6951;SDS011;3515;50.138;8.502;2022-08-21T06:28:50;9;;;4;;
6951;SDS011;3515;50.138;8.502;2022-08-21T06:31:17;8;;;3;;
6951;SDS011;3515;50.138;8.502;2022-08-21T06:33:41;8;;;4;;
6951;SDS011;3515;50.138;8.502;2022-08-21T06:36:06;9;;;4;;
6951;SDS011;3515;50.138;8.502;2022-08-21T06:38:31;11;;;5;;
6951;SDS011;3515;50.138;8.502;2022-08-21T06:40:57;13;;;7;;
6951;SDS011;3515;50.138;8.502;2022-08-21T06:43:22;17;;;10;;
6951;SDS011;3515;50.138;8.502;2022-08-21T06:45:47;23;;;13;;
6951;SDS011;3515;50.138;8.502;2022-08-21T06:48:12;29;;;16;;
6951;SDS011;3515;50.138;8.502;2022-08-21T06:50:38;37;;;20;;
6951;SDS011;3515;50.138;8.502;2022-08-21T06:53:04;44;;;24;;
6951;SDS011;3515;50.138;8.502;2022-08-21T06:55:28;52;;;28;;
6951;SDS011;3515;50.138;8.502;2022-08-21T06:57:54;58;;;31;;
6951;SDS011;3515;50.138;8.502;2022-08-21T07:00:19;65;;;34;;
6951;SDS011;3515;50.138;8.502;2022-08-21T07:02:44;71;;;36;;
6951;SDS011;3515;50.138;8.502;2022-08-21T07:05:09;74;;;37;;
6951;SDS011;3515;50.138;8.502;2022-08-21T07:07:35;79;;;39;;
6951;SDS011;3515;50.138;8.502;2022-08-21T07:10:00;81;;;39;;
6951;SDS011;3515;50.138;8.502;2022-08-21T07:12:25;83;;;40;;
6951;SDS011;3515;50.138;8.502;2022-08-21T07:14:52;86;;;40;;
6951;SDS011;3515;50.138;8.502;2022-08-21T07:17:17;88;;;41;;
6951;SDS011;3515;50.138;8.502;2022-08-21T07:19:43;91;;;42;;
6951;SDS011;3515;50.138;8.502;2022-08-21T07:22:08;91;;;42;;
6951;SDS011;3515;50.138;8.502;2022-08-21T07:24:33;94;;;43;;
6951;SDS011;3515;50.138;8.502;2022-08-21T07:27:04;94;;;43;;
6951;SDS011;3515;50.138;8.502;2022-08-21T07:29:29;96;;;43;;
6951;SDS011;3515;50.138;8.502;2022-08-21T07:31:54;96;;;44;;
6951;SDS011;3515;50.138;8.502;2022-08-21T07:34:19;96;;;44;;
6951;SDS011;3515;50.138;8.502;2022-08-21T07:36:44;96;;;44;;
6951;SDS011;3515;50.138;8.502;2022-08-21T07:39:10;94;;;43;;
6951;SDS011;3515;50.138;8.502;2022-08-21T07:41:35;93;;;42;;
6951;SDS011;3515;50.138;8.502;2022-08-21T07:44:00;92;;;42;;
6951;SDS011;3515;50.138;8.502;2022-08-21T07:46:26;90;;;42;;
6951;SDS011;3515;50.138;8.502;2022-08-21T07:48:51;88;;;42;;
6951;SDS011;3515;50.138;8.502;2022-08-21T07:51:16;87;;;41;;
6951;SDS011;3515;50.138;8.502;2022-08-21T07:53:41;86;;;41;;
6951;SDS011;3515;50.138;8.502;2022-08-21T07:56:07;85;;;41;;
6951;SDS011;3515;50.138;8.502;2022-08-21T07:58:32;85;;;41;;
6951;SDS011;3515;50.138;8.502;2022-08-21T08:00:57;85;;;41;;
6951;SDS011;3515;50.138;8.502;2022-08-21T08:03:22;85;;;41;;
6951;SDS011;3515;50.138;8.502;2022-08-21T08:05:48;85;;;41;;
6951;SDS011;3515;50.138;8.502;2022-08-21T08:08:13;86;;;41;;
6951;SDS011;3515;50.138;8.502;2022-08-21T08:10:38;87;;;41;;
6951;SDS011;3515;50.138;8.502;2022-08-21T08:13:03;87;;;41;;
6951;SDS011;3515;50.138;8.502;2022-08-21T08:15:29;87;;;41;;
6951;SDS011;3515;50.138;8.502;2022-08-21T08:17:54;76;;;36;;
6951;SDS011;3515;50.138;8.502;2022-08-21T08:20:20;66;;;31;;
6951;SDS011;3515;50.138;8.502;2022-08-21T08:22:48;56;;;26;;
6951;SDS011;3515;50.138;8.502;2022-08-21T08:25:13;45;;;21;;
6951;SDS011;3515;50.138;8.502;2022-08-21T08:27:42;36;;;16;;
6951;SDS011;3515;50.138;8.502;2022-08-21T08:30:09;25;;;11;;
6951;SDS011;3515;50.138;8.502;2022-08-21T08:32:51;14;;;6;;
6951;SDS011;3515;50.138;8.502;2022-08-21T08:35:06;5;;;1;;
6951;SDS011;3515;50.138;8.502;2022-08-21T08:37:32;5;;;1;;
6951;SDS011;3515;50.138;8.502;2022-08-21T08:39:56;5;;;1;;
6951;SDS011;3515;50.138;8.502;2022-08-21T08:42:23;6;;;1;;
6951;SDS011;3515;50.138;8.502;2022-08-21T08:44:55;5;;;1;;
6951;SDS011;3515;50.138;8.502;2022-08-21T08:47:17;6;;;1;;
6951;SDS011;3515;50.138;8.502;2022-08-21T08:49:46;6;;;2;;
6951;SDS011;3515;50.138;8.502;2022-08-21T08:52:10;7;;;2;;
6951;SDS011;3515;50.138;8.502;2022-08-21T08:54:38;6;;;2;;
6951;SDS011;3515;50.138;8.502;2022-08-21T08:56:58;7;;;2;;
6951;SDS011;3515;50.138;8.502;2022-08-21T08:59:25;6;;;2;;
6951;SDS011;3515;50.138;8.502;2022-08-21T09:04:22;6;;;2;;
6951;SDS011;3515;50.138;8.502;2022-08-21T09:06:51;5;;;2;;
6951;SDS011;3515;50.138;8.502;2022-08-21T09:09:14;5;;;1;;
6951;SDS011;3515;50.138;8.502;2022-08-21T09:11:36;5;;;1;;
6951;SDS011;3515;50.138;8.502;2022-08-21T09:14:10;5;;;1;;
6951;SDS011;3515;50.138;8.502;2022-08-21T09:16:28;6;;;1;;
6951;SDS011;3515;50.138;8.502;2022-08-21T09:18:54;6;;;2;;
6951;SDS011;3515;50.138;8.502;2022-08-21T09:21:17;7;;;2;;
6951;SDS011;3515;50.138;8.502;2022-08-21T09:23:44;6;;;2;;
6951;SDS011;3515;50.138;8.502;2022-08-21T09:26:07;6;;;2;;
6951;SDS011;3515;50.138;8.502;2022-08-21T09:28:32;6;;;3;;
6951;SDS011;3515;50.138;8.502;2022-08-21T09:30:56;6;;;3;;
6951;SDS011;3515;50.138;8.502;2022-08-21T09:33:22;6;;;2;;
6951;SDS011;3515;50.138;8.502;2022-08-21T09:35:48;6;;;2;;
6951;SDS011;3515;50.138;8.502;2022-08-21T09:38:22;5;;;2;;
6951;SDS011;3515;50.138;8.502;2022-08-21T09:40:39;5;;;2;;
6951;SDS011;3515;50.138;8.502;2022-08-21T09:43:04;5;;;2;;
6951;SDS011;3515;50.138;8.502;2022-08-21T09:45:28;5;;;2;;
6951;SDS011;3515;50.138;8.502;2022-08-21T09:47:53;5;;;2;;
6951;SDS011;3515;50.138;8.502;2022-08-21T09:50:21;5;;;2;;
6951;SDS011;3515;50.138;8.502;2022-08-21T09:52:45;5;;;2;;
6951;SDS011;3515;50.138;8.502;2022-08-21T09:55:13;5;;;2;;
6951;SDS011;3515;50.138;8.502;2022-08-21T09:57:34;5;;;2;;
6951;SDS011;3515;50.138;8.502;2022-08-21T10:00:07;5;;;2;;
6951;SDS011;3515;50.138;8.502;2022-08-21T10:02:28;4;;;2;;
6951;SDS011;3515;50.138;8.502;2022-08-21T10:04:51;4;;;2;;
6951;SDS011;3515;50.138;8.502;2022-08-21T10:07:22;4;;;2;;
6951;SDS011;3515;50.138;8.502;2022-08-21T10:09:45;4;;;1;;
6951;SDS011;3515;50.138;8.502;2022-08-21T10:12:12;4;;;1;;
6951;SDS011;3515;50.138;8.502;2022-08-21T10:14:42;4;;;1;;
6951;SDS011;3515;50.138;8.502;2022-08-21T10:17:02;4;;;1;;
6951;SDS011;3515;50.138;8.502;2022-08-21T10:19:29;5;;;1;;
6951;SDS011;3515;50.138;8.502;2022-08-21T10:21:57;5;;;1;;
6951;SDS011;3515;50.138;8.502;2022-08-21T10:24:18;5;;;1;;
6951;SDS011;3515;50.138;8.502;2022-08-21T10:26:44;5;;;1;;
6951;SDS011;3515;50.138;8.502;2022-08-21T10:29:08;5;;;1;;
6951;SDS011;3515;50.138;8.502;2022-08-21T10:31:35;6;;;1;;
6951;SDS011;3515;50.138;8.502;2022-08-21T10:34:01;5;;;1;;
6951;SDS011;3515;50.138;8.502;2022-08-21T10:36:25;5;;;1;;
6951;SDS011;3515;50.138;8.502;2022-08-21T10:38:54;4;;;1;;
6951;SDS011;3515;50.138;8.502;2022-08-21T10:41:15;3;;;0;;
6951;SDS011;3515;50.138;8.502;2022-08-21T10:43:41;3;;;0;;
6951;SDS011;3515;50.138;8.502;2022-08-21T10:46:06;4;;;0;;
6951;SDS011;3515;50.138;8.502;2022-08-21T10:48:32;4;;;0;;
6951;SDS011;3515;50.138;8.502;2022-08-21T10:50:55;4;;;0;;
6951;SDS011;3515;50.138;8.502;2022-08-21T10:53:28;4;;;0;;
6951;SDS011;3515;50.138;8.502;2022-08-21T10:55:50;5;;;0;;
6951;SDS011;3515;50.138;8.502;2022-08-21T10:58:11;5;;;0;;
6951;SDS011;3515;50.138;8.502;2022-08-21T11:00:38;5;;;0;;
6951;SDS011;3515;50.138;8.502;2022-08-21T11:03:02;5;;;1;;
6951;SDS011;3515;50.138;8.502;2022-08-21T11:05:29;4;;;1;;
6951;SDS011;3515;50.138;8.502;2022-08-21T11:07:53;4;;;1;;
6951;SDS011;3515;50.138;8.502;2022-08-21T11:10:19;4;;;1;;
6951;SDS011;3515;50.138;8.502;2022-08-21T11:12:43;4;;;1;;
6951;SDS011;3515;50.138;8.502;2022-08-21T11:15:11;4;;;1;;
6951;SDS011;3515;50.138;8.502;2022-08-21T11:17:34;4;;;1;;
6951;SDS011;3515;50.138;8.502;2022-08-21T11:19:59;4;;;1;;
6951;SDS011;3515;50.138;8.502;2022-08-21T11:22:24;4;;;1;;
6951;SDS011;3515;50.138;8.502;2022-08-21T11:24:49;4;;;1;;
6951;SDS011;3515;50.138;8.502;2022-08-21T11:27:16;4;;;1;;
6951;SDS011;3515;50.138;8.502;2022-08-21T11:29:39;4;;;1;;
6951;SDS011;3515;50.138;8.502;2022-08-21T11:32:13;4;;;0;;
6951;SDS011;3515;50.138;8.502;2022-08-21T11:34:34;4;;;0;;
6951;SDS011;3515;50.138;8.502;2022-08-21T11:36:56;4;;;0;;
6951;SDS011;3515;50.138;8.502;2022-08-21T11:39:22;4;;;0;;
6951;SDS011;3515;50.138;8.502;2022-08-21T11:41:46;4;;;0;;
6951;SDS011;3515;50.138;8.502;2022-08-21T11:44:11;4;;;0;;
6951;SDS011;3515;50.138;8.502;2022-08-21T11:46:37;3;;;0;;
6951;SDS011;3515;50.138;8.502;2022-08-21T11:51:27;4;;;1;;
6951;SDS011;3515;50.138;8.502;2022-08-21T11:53:52;4;;;1;;
6951;SDS011;3515;50.138;8.502;2022-08-21T11:56:17;4;;;1;;
6951;SDS011;3515;50.138;8.502;2022-08-21T11:58:43;4;;;1;;
6951;SDS011;3515;50.138;8.502;2022-08-21T12:01:08;5;;;2;;
6951;SDS011;3515;50.138;8.502;2022-08-21T12:03:33;5;;;2;;
6951;SDS011;3515;50.138;8.502;2022-08-21T12:05:58;6;;;2;;
6951;SDS011;3515;50.138;8.502;2022-08-21T12:08:27;5;;;2;;
6951;SDS011;3515;50.138;8.502;2022-08-21T12:10:58;5;;;3;;
6951;SDS011;3515;50.138;8.502;2022-08-21T12:13:22;5;;;3;;
6951;SDS011;3515;50.138;8.502;2022-08-21T12:15:39;5;;;2;;
6951;SDS011;3515;50.138;8.502;2022-08-21T12:18:05;5;;;2;;
6951;SDS011;3515;50.138;8.502;2022-08-21T12:20:36;5;;;2;;
6951;SDS011;3515;50.138;8.502;2022-08-21T12:23:02;4;;;2;;
6951;SDS011;3515;50.138;8.502;2022-08-21T12:25:20;4;;;2;;
6951;SDS011;3515;50.138;8.502;2022-08-21T12:27:46;4;;;1;;
6951;SDS011;3515;50.138;8.502;2022-08-21T12:30:33;4;;;1;;
6951;SDS011;3515;50.138;8.502;2022-08-21T12:32:43;3;;;1;;
6951;SDS011;3515;50.138;8.502;2022-08-21T12:35:14;3;;;1;;
6951;SDS011;3515;50.138;8.502;2022-08-21T12:37:27;3;;;0;;
6951;SDS011;3515;50.138;8.502;2022-08-21T12:39:52;4;;;0;;
6951;SDS011;3515;50.138;8.502;2022-08-21T12:42:17;4;;;0;;
6951;SDS011;3515;50.138;8.502;2022-08-21T12:44:43;4;;;0;;
6951;SDS011;3515;50.138;8.502;2022-08-21T12:47:13;4;;;0;;
6951;SDS011;3515;50.138;8.502;2022-08-21T12:49:34;4;;;0;;
6951;SDS011;3515;50.138;8.502;2022-08-21T12:52:00;4;;;0;;
6951;SDS011;3515;50.138;8.502;2022-08-21T12:54:25;4;;;0;;
6951;SDS011;3515;50.138;8.502;2022-08-21T12:56:55;4;;;0;;
6951;SDS011;3515;50.138;8.502;2022-08-21T12:59:13;3;;;0;;
6951;SDS011;3515;50.138;8.502;2022-08-21T13:01:39;3;;;0;;
6951;SDS011;3515;50.138;8.502;2022-08-21T13:04:07;3;;;0;;
6951;SDS011;3515;50.138;8.502;2022-08-21T13:06:31;3;;;0;;
6951;SDS011;3515;50.138;8.502;2022-08-21T13:08:55;3;;;0;;
6951;SDS011;3515;50.138;8.502;2022-08-21T13:11:19;2;;;0;;
6951;SDS011;3515;50.138;8.502;2022-08-21T13:13:48;2;;;0;;
6951;SDS011;3515;50.138;8.502;2022-08-21T13:16:10;2;;;0;;
6951;SDS011;3515;50.138;8.502;2022-08-21T13:18:36;2;;;0;;
6951;SDS011;3515;50.138;8.502;2022-08-21T13:21:04;2;;;0;;
6951;SDS011;3515;50.138;8.502;2022-08-21T13:23:26;2;;;0;;
6951;SDS011;3515;50.138;8.502;2022-08-21T13:25:51;3;;;0;;
6951;SDS011;3515;50.138;8.502;2022-08-21T13:28:16;3;;;0;;
6951;SDS011;3515;50.138;8.502;2022-08-21T13:30:42;3;;;0;;
6951;SDS011;3515;50.138;8.502;2022-08-21T13:33:07;2;;;0;;
6951;SDS011;3515;50.138;8.502;2022-08-21T13:35:36;2;;;0;;
6951;SDS011;3515;50.138;8.502;2022-08-21T13:37:58;2;;;0;;
6951;SDS011;3515;50.138;8.502;2022-08-21T13:40:24;3;;;0;;
6951;SDS011;3515;50.138;8.502;2022-08-21T13:42:47;3;;;0;;
6951;SDS011;3515;50.138;8.502;2022-08-21T13:45:15;3;;;0;;
6951;SDS011;3515;50.138;8.502;2022-08-21T13:47:38;3;;;0;;
6951;SDS011;3515;50.138;8.502;2022-08-21T13:50:04;3;;;0;;
6951;SDS011;3515;50.138;8.502;2022-08-21T13:52:29;3;;;0;;
6951;SDS011;3515;50.138;8.502;2022-08-21T13:54:55;3;;;0;;
6951;SDS011;3515;50.138;8.502;2022-08-21T13:57:23;3;;;0;;
6951;SDS011;3515;50.138;8.502;2022-08-21T13:59:44;2;;;0;;
6951;SDS011;3515;50.138;8.502;2022-08-21T14:02:11;2;;;0;;
6951;SDS011;3515;50.138;8.502;2022-08-21T14:04:36;2;;;0;;
6951;SDS011;3515;50.138;8.502;2022-08-21T14:07:00;2;;;0;;
6951;SDS011;3515;50.138;8.502;2022-08-21T14:09:28;2;;;0;;
6951;SDS011;3515;50.138;8.502;2022-08-21T14:11:51;2;;;0;;
6951;SDS011;3515;50.138;8.502;2022-08-21T14:14:19;2;;;0;;
6951;SDS011;3515;50.138;8.502;2022-08-21T14:16:43;2;;;0;;
6951;SDS011;3515;50.138;8.502;2022-08-21T14:19:09;2;;;0;;
6951;SDS011;3515;50.138;8.502;2022-08-21T14:21:38;2;;;0;;
6951;SDS011;3515;50.138;8.502;2022-08-21T14:24:03;2;;;0;;
6951;SDS011;3515;50.138;8.502;2022-08-21T14:26:27;2;;;0;;
6951;SDS011;3515;50.138;8.502;2022-08-21T14:28:52;2;;;0;;
6951;SDS011;3515;50.138;8.502;2022-08-21T14:31:19;2;;;0;;
6951;SDS011;3515;50.138;8.502;2022-08-21T14:33:43;4;;;0;;
6951;SDS011;3515;50.138;8.502;2022-08-21T14:36:08;3;;;0;;
6951;SDS011;3515;50.138;8.502;2022-08-21T14:38:35;3;;;0;;
6951;SDS011;3515;50.138;8.502;2022-08-21T14:40:59;3;;;0;;
6951;SDS011;3515;50.138;8.502;2022-08-21T14:43:24;3;;;0;;
6951;SDS011;3515;50.138;8.502;2022-08-21T14:45:49;3;;;0;;
6951;SDS011;3515;50.138;8.502;2022-08-21T14:48:14;3;;;0;;
6951;SDS011;3515;50.138;8.502;2022-08-21T14:50:40;3;;;0;;
6951;SDS011;3515;50.138;8.502;2022-08-21T14:53:05;2;;;0;;
6951;SDS011;3515;50.138;8.502;2022-08-21T14:55:30;2;;;0;;
6951;SDS011;3515;50.138;8.502;2022-08-21T14:57:56;2;;;0;;
6951;SDS011;3515;50.138;8.502;2022-08-21T15:00:22;2;;;0;;
6951;SDS011;3515;50.138;8.502;2022-08-21T15:02:46;2;;;0;;
6951;SDS011;3515;50.138;8.502;2022-08-21T15:05:11;2;;;0;;
6951;SDS011;3515;50.138;8.502;2022-08-21T15:07:36;2;;;0;;
6951;SDS011;3515;50.138;8.502;2022-08-21T15:10:02;3;;;0;;
6951;SDS011;3515;50.138;8.502;2022-08-21T15:12:27;3;;;0;;
6951;SDS011;3515;50.138;8.502;2022-08-21T15:14:52;3;;;0;;
6951;SDS011;3515;50.138;8.502;2022-08-21T15:17:17;3;;;0;;
6951;SDS011;3515;50.138;8.502;2022-08-21T15:19:43;3;;;0;;
6951;SDS011;3515;50.138;8.502;2022-08-21T15:22:08;2;;;0;;
6951;SDS011;3515;50.138;8.502;2022-08-21T15:24:33;3;;;0;;
6951;SDS011;3515;50.138;8.502;2022-08-21T15:26:59;3;;;0;;
6951;SDS011;3515;50.138;8.502;2022-08-21T15:29:24;3;;;0;;
6951;SDS011;3515;50.138;8.502;2022-08-21T15:31:51;3;;;0;;
6951;SDS011;3515;50.138;8.502;2022-08-21T15:34:14;3;;;0;;
6951;SDS011;3515;50.138;8.502;2022-08-21T15:36:40;3;;;0;;
6951;SDS011;3515;50.138;8.502;2022-08-21T15:39:05;3;;;0;;
6951;SDS011;3515;50.138;8.502;2022-08-21T15:41:30;3;;;0;;
6951;SDS011;3515;50.138;8.502;2022-08-21T15:43:56;4;;;0;;
6951;SDS011;3515;50.138;8.502;2022-08-21T15:46:21;3;;;0;;
6951;SDS011;3515;50.138;8.502;2022-08-21T15:48:46;4;;;0;;
6951;SDS011;3515;50.138;8.502;2022-08-21T15:51:12;4;;;0;;
6951;SDS011;3515;50.138;8.502;2022-08-21T15:53:37;4;;;0;;
6951;SDS011;3515;50.138;8.502;2022-08-21T15:56:02;4;;;0;;
6951;SDS011;3515;50.138;8.502;2022-08-21T15:58:27;4;;;0;;
6951;SDS011;3515;50.138;8.502;2022-08-21T16:00:52;4;;;0;;
6951;SDS011;3515;50.138;8.502;2022-08-21T16:03:18;3;;;0;;
6951;SDS011;3515;50.138;8.502;2022-08-21T16:05:43;3;;;0;;
6951;SDS011;3515;50.138;8.502;2022-08-21T16:08:08;3;;;0;;
6951;SDS011;3515;50.138;8.502;2022-08-21T16:10:33;2;;;0;;
6951;SDS011;3515;50.138;8.502;2022-08-21T16:13:01;2;;;0;;
6951;SDS011;3515;50.138;8.502;2022-08-21T16:15:24;3;;;0;;
6951;SDS011;3515;50.138;8.502;2022-08-21T16:17:49;2;;;0;;
6951;SDS011;3515;50.138;8.502;2022-08-21T16:20:16;3;;;0;;
6951;SDS011;3515;50.138;8.502;2022-08-21T16:22:39;3;;;0;;
6951;SDS011;3515;50.138;8.502;2022-08-21T16:25:05;3;;;0;;
6951;SDS011;3515;50.138;8.502;2022-08-21T16:27:30;3;;;0;;
6951;SDS011;3515;50.138;8.502;2022-08-21T16:29:55;3;;;0;;
6951;SDS011;3515;50.138;8.502;2022-08-21T16:32:20;2;;;0;;
6951;SDS011;3515;50.138;8.502;2022-08-21T16:34:46;2;;;0;;
6951;SDS011;3515;50.138;8.502;2022-08-21T16:37:11;2;;;0;;